createdAt,value
2022-09-14T00:01:25.771Z,1.60
2022-09-14T00:03:55.134Z,1.77
2022-09-14T00:06:22.139Z,1.60
2022-09-14T00:08:53.610Z,1.90
2022-09-14T00:11:22.249Z,1.93
2022-09-14T00:13:49.379Z,1.47
2022-09-14T00:16:24.384Z,1.80
2022-09-14T00:18:57.533Z,1.90
2022-09-14T00:21:24.601Z,1.93
2022-09-14T00:23:51.127Z,1.80
2022-09-14T00:26:21.298Z,2.00
2022-09-14T00:28:51.234Z,1.63
2022-09-14T00:31:18.838Z,1.70
2022-09-14T00:33:47.597Z,2.10
2022-09-14T00:36:17.101Z,1.50
2022-09-14T00:38:45.248Z,2.10
2022-09-14T00:41:16.839Z,2.10
2022-09-14T00:44:10.827Z,1.70
2022-09-14T00:46:40.176Z,1.90
2022-09-14T00:49:17.160Z,1.50
2022-09-14T00:51:48.362Z,1.70
2022-09-14T00:54:15.393Z,1.70
2022-09-14T00:56:41.866Z,1.80
2022-09-14T00:59:17.647Z,1.70
2022-09-14T01:01:44.686Z,2.07
2022-09-14T01:04:11.600Z,1.87
2022-09-14T01:06:52.450Z,1.87
2022-09-14T01:09:39.392Z,1.80
2022-09-14T01:12:14.873Z,1.70
2022-09-14T01:14:56.967Z,1.60
2022-09-14T01:17:43.339Z,1.53
2022-09-14T01:20:35.684Z,1.87
2022-09-14T01:23:24.920Z,1.57
2022-09-14T01:26:18.972Z,2.40
2022-09-14T01:29:36.963Z,1.90
2022-09-14T01:32:14.337Z,1.53
2022-09-14T01:34:48.454Z,2.10
2022-09-14T01:38:03.077Z,2.07
2022-09-14T01:40:35.287Z,2.20
2022-09-14T01:43:13.690Z,1.80
2022-09-14T01:45:47.222Z,2.07
2022-09-14T01:48:16.870Z,2.13
2022-09-14T01:50:50.743Z,1.90
2022-09-14T01:53:30.822Z,2.13
2022-09-14T01:56:20.572Z,2.00
2022-09-14T01:58:53.218Z,2.30
2022-09-14T02:01:24.699Z,1.90
2022-09-14T02:03:59.082Z,2.27
2022-09-14T02:06:35.830Z,2.20
2022-09-14T02:09:04.266Z,2.10
2022-09-14T02:11:30.912Z,1.83
2022-09-14T02:13:57.483Z,2.13
2022-09-14T02:16:26.125Z,2.00
2022-09-14T02:18:52.947Z,2.00
2022-09-14T02:21:27.110Z,1.83
2022-09-14T02:23:54.157Z,1.67
2022-09-14T02:26:22.696Z,2.03
2022-09-14T02:28:49.727Z,1.80
2022-09-14T02:31:42.009Z,1.40
2022-09-14T02:34:34.535Z,2.00
2022-09-14T02:37:08.152Z,2.03
2022-09-14T02:40:06.822Z,1.90
2022-09-14T02:43:11.232Z,1.97
2022-09-14T02:45:52.730Z,2.10
2022-09-14T02:48:43.746Z,1.90
2022-09-14T02:51:34.568Z,1.67
2022-09-14T02:54:10.483Z,1.80
2022-09-14T02:56:37.415Z,1.93
2022-09-14T02:59:05.782Z,2.10
2022-09-14T03:01:32.484Z,1.90
2022-09-14T03:03:59.033Z,2.17
2022-09-14T03:06:25.671Z,2.03
2022-09-14T03:08:52.233Z,2.03
2022-09-14T03:11:18.808Z,1.80
2022-09-14T03:13:45.313Z,2.20
2022-09-14T03:16:17.099Z,2.27
2022-09-14T03:18:44.031Z,2.10
2022-09-14T03:21:14.231Z,2.30
2022-09-14T03:23:46.083Z,2.27
2022-09-14T03:26:16.344Z,2.30
2022-09-14T03:28:43.545Z,2.23
2022-09-14T03:31:12.567Z,2.00
2022-09-14T03:33:39.615Z,2.00
2022-09-14T03:36:11.684Z,2.87
2022-09-14T03:38:38.249Z,2.43
2022-09-14T03:41:12.466Z,1.93
2022-09-14T03:43:39.612Z,1.90
2022-09-14T03:46:11.969Z,2.13
2022-09-14T03:48:38.899Z,2.07
2022-09-14T03:51:07.642Z,2.17
2022-09-14T03:53:34.772Z,1.90
2022-09-14T03:56:01.464Z,1.80
2022-09-14T03:58:31.843Z,1.83
2022-09-14T04:01:04.769Z,2.07
2022-09-14T04:03:32.380Z,1.90
2022-09-14T04:05:59.422Z,2.20
2022-09-14T04:08:25.957Z,1.90
2022-09-14T04:10:52.666Z,2.07
2022-09-14T04:13:19.510Z,1.70
2022-09-14T04:15:56.804Z,2.00
2022-09-14T04:18:23.741Z,2.03
2022-09-14T04:21:05.775Z,2.17
2022-09-14T04:23:46.258Z,2.07
2022-09-14T04:26:23.633Z,2.33
2022-09-14T04:28:50.123Z,2.10
2022-09-14T04:31:17.157Z,2.30
2022-09-14T04:33:44.703Z,2.43
2022-09-14T04:36:16.677Z,2.00
2022-09-14T04:38:44.363Z,2.23
2022-09-14T04:41:17.855Z,1.90
2022-09-14T04:43:46.095Z,2.03
2022-09-14T04:46:17.185Z,2.10
2022-09-14T04:48:43.758Z,2.00
2022-09-14T04:51:13.987Z,2.30
2022-09-14T04:53:40.846Z,1.93
2022-09-14T04:56:09.024Z,2.00
2022-09-14T04:58:39.512Z,2.10
2022-09-14T05:01:08.592Z,2.03
2022-09-14T05:03:38.914Z,2.37
2022-09-14T05:06:07.757Z,2.07
2022-09-14T05:08:37.085Z,2.10
2022-09-14T05:11:03.580Z,2.07
2022-09-14T05:13:30.059Z,2.30
2022-09-14T05:16:08.142Z,2.03
2022-09-14T05:18:34.733Z,2.47
2022-09-14T05:21:10.507Z,2.23
2022-09-14T05:23:37.486Z,2.50
2022-09-14T05:26:05.289Z,2.67
2022-09-14T05:28:34.392Z,2.63
2022-09-14T05:31:05.945Z,2.60
2022-09-14T05:33:33.859Z,2.83
2022-09-14T05:36:02.087Z,2.20
2022-09-14T05:38:33.758Z,2.50
2022-09-14T05:41:00.719Z,2.70
2022-09-14T05:43:28.677Z,2.50
2022-09-14T05:45:55.721Z,2.90
2022-09-14T05:48:22.813Z,2.70
2022-09-14T05:50:49.321Z,2.73
2022-09-14T05:53:15.821Z,2.70
2022-09-14T05:55:42.304Z,2.90
2022-09-14T05:58:08.818Z,2.50
2022-09-14T06:00:35.626Z,2.77
2022-09-14T06:03:02.441Z,2.70
2022-09-14T06:05:29.309Z,3.30
2022-09-14T06:07:55.963Z,3.90
2022-09-14T06:10:22.911Z,3.03
2022-09-14T06:12:52.322Z,2.93
2022-09-14T06:15:24.647Z,2.63
2022-09-14T06:17:51.160Z,2.60
2022-09-14T06:20:18.836Z,2.57
2022-09-14T06:22:45.976Z,2.87
2022-09-14T06:25:12.514Z,2.50
2022-09-14T06:27:39.976Z,2.10
2022-09-14T06:30:07.148Z,2.30
2022-09-14T06:32:33.631Z,2.50
2022-09-14T06:35:00.237Z,2.80
2022-09-14T06:37:26.728Z,2.70
2022-09-14T06:39:53.258Z,2.97
2022-09-14T06:42:19.874Z,2.90
2022-09-14T06:44:47.994Z,3.07
2022-09-14T06:47:14.458Z,2.57
2022-09-14T06:49:40.923Z,2.80
2022-09-14T06:52:07.417Z,3.03
2022-09-14T06:54:34.083Z,3.10
2022-09-14T06:57:00.560Z,3.10
2022-09-14T06:59:27.093Z,3.10
2022-09-14T07:01:53.627Z,3.90
2022-09-14T07:04:20.318Z,3.30
2022-09-14T07:06:49.670Z,4.60
2022-09-14T07:09:18.718Z,3.83
2022-09-14T07:11:46.081Z,3.90
2022-09-14T07:14:12.766Z,3.40
2022-09-14T07:16:40.566Z,3.40
2022-09-14T07:19:11.712Z,3.27
2022-09-14T07:21:38.246Z,3.70
2022-09-14T07:24:05.946Z,3.50
2022-09-14T07:26:39.625Z,3.07
2022-09-14T07:29:08.616Z,3.77
2022-09-14T07:31:42.051Z,3.70
2022-09-14T07:34:09.877Z,4.00
2022-09-14T07:36:37.602Z,3.10
2022-09-14T07:39:06.008Z,3.37
2022-09-14T07:41:34.321Z,3.53
2022-09-14T07:44:03.060Z,3.90
2022-09-14T07:46:33.196Z,3.30
2022-09-14T07:49:02.250Z,3.87
2022-09-14T07:51:30.741Z,3.50
2022-09-14T07:53:59.299Z,3.37
2022-09-14T07:56:26.088Z,3.47
2022-09-14T07:59:17.229Z,3.27
2022-09-14T08:01:46.529Z,3.33
2022-09-14T08:04:13.135Z,3.47
2022-09-14T08:06:40.823Z,3.47
2022-09-14T08:09:10.948Z,3.37
2022-09-14T08:11:38.489Z,3.07
2022-09-14T08:14:09.850Z,3.03
2022-09-14T08:16:38.577Z,3.07
2022-09-14T08:19:07.508Z,2.90
2022-09-14T08:21:35.826Z,2.97
2022-09-14T08:24:04.294Z,3.40
2022-09-14T08:26:31.703Z,3.50
2022-09-14T08:29:03.044Z,3.13
2022-09-14T08:31:29.713Z,3.03
2022-09-14T08:34:03.619Z,2.80
2022-09-14T08:36:32.937Z,2.57
2022-09-14T08:39:00.683Z,3.00
2022-09-14T08:41:46.085Z,2.80
2022-09-14T08:44:20.891Z,2.50
2022-09-14T08:46:50.102Z,2.30
2022-09-14T08:49:41.131Z,2.40
2022-09-14T08:52:19.853Z,3.10
2022-09-14T08:54:51.861Z,2.50
2022-09-14T08:57:26.142Z,2.57
2022-09-14T09:00:05.548Z,2.33
2022-09-14T09:02:59.168Z,2.13
2022-09-14T09:05:36.578Z,2.20
2022-09-14T09:08:22.141Z,1.87
2022-09-14T09:10:59.403Z,2.07
2022-09-14T09:13:32.601Z,2.00
2022-09-14T09:16:02.530Z,2.07
2022-09-14T09:18:40.991Z,2.10
2022-09-14T09:21:17.014Z,2.50
2022-09-14T09:23:44.115Z,2.10
2022-09-14T09:26:17.963Z,2.20
2022-09-14T09:28:56.902Z,2.20
2022-09-14T09:31:36.239Z,2.30
2022-09-14T09:34:03.935Z,2.40
2022-09-14T09:36:39.842Z,2.77
2022-09-14T09:39:06.887Z,3.20
2022-09-14T09:41:57.631Z,2.50
2022-09-14T09:44:24.794Z,2.60
2022-09-14T09:46:55.764Z,2.53
2022-09-14T09:49:36.200Z,2.90
2022-09-14T09:52:09.829Z,2.57
2022-09-14T09:54:39.668Z,2.70
2022-09-14T09:57:20.881Z,2.90
2022-09-14T09:59:48.654Z,2.60
2022-09-14T10:02:30.180Z,2.63
2022-09-14T10:05:33.867Z,2.27
2022-09-14T10:08:04.486Z,2.37
2022-09-14T10:10:35.403Z,2.50
2022-09-14T10:13:04.840Z,2.43
2022-09-14T10:15:33.715Z,2.23
2022-09-14T10:18:09.443Z,2.70
2022-09-14T10:20:39.152Z,2.37
2022-09-14T10:23:20.685Z,2.83
2022-09-14T10:25:48.235Z,2.53
2022-09-14T10:28:23.105Z,2.80
2022-09-14T10:30:56.190Z,3.03
2022-09-14T10:33:24.224Z,2.23
2022-09-14T10:36:01.618Z,2.87
2022-09-14T10:38:33.976Z,2.70
2022-09-14T10:41:10.600Z,2.13
2022-09-14T10:44:02.633Z,2.60
2022-09-14T10:47:10.431Z,2.53
2022-09-14T10:50:04.563Z,2.50
2022-09-14T10:52:36.915Z,2.70
2022-09-14T10:55:06.409Z,2.20
2022-09-14T10:58:18.004Z,2.70
2022-09-14T11:01:01.986Z,2.90
2022-09-14T11:03:45.715Z,3.00
2022-09-14T11:06:50.282Z,3.10
2022-09-14T11:09:25.350Z,2.90
2022-09-14T11:12:07.943Z,2.87
2022-09-14T11:14:43.976Z,3.10
2022-09-14T11:17:45.999Z,3.27
2022-09-14T11:20:15.636Z,3.50
2022-09-14T11:22:54.082Z,4.20
2022-09-14T11:25:50.049Z,4.00
2022-09-14T11:28:21.309Z,4.17
2022-09-14T11:30:56.421Z,4.50
2022-09-14T11:33:35.444Z,4.60
2022-09-14T11:36:09.271Z,5.37
2022-09-14T11:38:40.121Z,5.03
2022-09-14T11:41:31.248Z,4.10
2022-09-14T11:44:06.979Z,3.60
2022-09-14T11:46:45.431Z,3.67
2022-09-14T11:49:40.106Z,3.13
2022-09-14T11:52:23.327Z,3.37
2022-09-14T11:54:50.965Z,3.53
2022-09-14T11:57:20.575Z,2.10
2022-09-14T11:59:53.219Z,2.20
2022-09-14T12:02:22.547Z,2.20
2022-09-14T12:05:18.314Z,2.53
2022-09-14T12:07:48.215Z,1.57
2022-09-14T12:10:14.760Z,1.60
2022-09-14T12:13:05.971Z,1.67
2022-09-14T12:15:37.376Z,1.70
2022-09-14T12:18:10.110Z,1.43
2022-09-14T12:21:00.408Z,1.63
2022-09-14T12:23:42.093Z,1.50
2022-09-14T12:26:11.982Z,1.80
2022-09-14T12:28:50.566Z,1.70
2022-09-14T12:32:01.389Z,1.90
2022-09-14T12:34:32.228Z,1.90
2022-09-14T12:37:00.966Z,1.70
2022-09-14T12:39:35.601Z,1.80
2022-09-14T12:42:25.371Z,1.90
2022-09-14T12:44:52.639Z,1.63
2022-09-14T12:47:25.307Z,1.70
2022-09-14T12:50:00.950Z,1.60
2022-09-14T12:52:43.190Z,1.90
2022-09-14T12:55:15.734Z,2.27
2022-09-14T12:58:16.143Z,1.90
2022-09-14T13:01:17.923Z,1.67
2022-09-14T13:03:49.626Z,1.50
2022-09-14T13:06:19.022Z,1.40
2022-09-14T13:08:48.094Z,1.57
2022-09-14T13:11:30.952Z,1.80
2022-09-14T13:13:59.311Z,1.53
2022-09-14T13:16:43.379Z,1.30
2022-09-14T13:19:21.731Z,1.30
2022-09-14T13:21:51.436Z,1.50
2022-09-14T13:24:43.124Z,1.33
2022-09-14T13:27:20.776Z,1.27
2022-09-14T13:29:48.696Z,1.90
2022-09-14T13:32:20.851Z,1.70
2022-09-14T13:34:47.736Z,1.77
2022-09-14T13:37:16.068Z,1.70
2022-09-14T13:39:51.084Z,1.97
2022-09-14T13:42:18.464Z,2.17
2022-09-14T13:44:46.721Z,2.10
2022-09-14T13:47:15.190Z,2.00
2022-09-14T13:49:45.008Z,2.30
2022-09-14T13:52:31.024Z,1.97
2022-09-14T13:55:16.204Z,2.20
2022-09-14T13:58:14.624Z,2.20
2022-09-14T14:00:49.077Z,2.63
2022-09-14T14:03:26.763Z,2.50
2022-09-14T14:05:53.676Z,2.53
2022-09-14T14:08:40.959Z,2.73
2022-09-14T14:11:09.425Z,2.10
2022-09-14T14:13:38.158Z,2.03
2022-09-14T14:16:20.506Z,2.20
2022-09-14T14:18:52.663Z,1.80
2022-09-14T14:21:22.478Z,2.03
2022-09-14T14:24:12.010Z,2.50
2022-09-14T14:26:38.474Z,1.80
2022-09-14T14:29:11.009Z,1.80
2022-09-14T14:31:37.635Z,2.10
2022-09-14T14:34:16.638Z,2.10
2022-09-14T14:36:43.416Z,2.03
2022-09-14T14:39:10.006Z,1.77
2022-09-14T14:41:37.564Z,1.60
2022-09-14T14:44:04.296Z,2.00
2022-09-14T14:46:31.031Z,2.10
2022-09-14T14:48:57.679Z,1.90
2022-09-14T14:51:24.405Z,2.37
2022-09-14T14:53:51.343Z,2.30
2022-09-14T14:56:17.999Z,2.10
2022-09-14T14:58:46.562Z,2.13
2022-09-14T15:01:14.015Z,2.00
2022-09-14T15:03:40.763Z,2.33
2022-09-14T15:06:33.955Z,2.40
2022-09-14T15:09:00.753Z,2.10
2022-09-14T15:11:27.403Z,2.90
2022-09-14T15:13:54.067Z,2.63
2022-09-14T15:16:20.619Z,2.23
2022-09-14T15:18:47.143Z,2.93
2022-09-14T15:21:13.724Z,2.60
2022-09-14T15:23:40.545Z,2.67
2022-09-14T15:26:07.289Z,2.60
2022-09-14T15:28:38.453Z,2.40
2022-09-14T15:31:08.052Z,2.80
2022-09-14T15:33:34.817Z,2.27
2022-09-14T15:36:01.483Z,2.80
2022-09-14T15:38:28.023Z,2.33
2022-09-14T15:40:54.778Z,3.10
2022-09-14T15:43:21.410Z,2.30
2022-09-14T15:45:48.042Z,3.03
2022-09-14T15:48:16.914Z,2.93
2022-09-14T15:50:45.932Z,3.10
2022-09-14T15:53:14.425Z,3.27
2022-09-14T15:55:45.529Z,2.70
2022-09-14T15:58:12.283Z,2.97
2022-09-14T16:00:43.232Z,2.70
2022-09-14T16:03:10.953Z,3.43
2022-09-14T16:05:38.752Z,3.37
2022-09-14T16:08:05.497Z,3.40
2022-09-14T16:10:32.166Z,3.23
2022-09-14T16:12:58.708Z,3.60
2022-09-14T16:15:25.367Z,3.10
2022-09-14T16:17:52.930Z,3.30
2022-09-14T16:20:21.284Z,3.40
2022-09-14T16:22:48.821Z,3.10
2022-09-14T16:25:16.439Z,3.57
2022-09-14T16:27:43.464Z,2.80
2022-09-14T16:30:10.563Z,3.17
2022-09-14T16:32:37.347Z,3.17
2022-09-14T16:35:08.135Z,2.87
2022-09-14T16:37:35.038Z,3.00
2022-09-14T16:40:02.278Z,2.93
2022-09-14T16:42:29.070Z,3.43
2022-09-14T16:44:55.719Z,3.47
2022-09-14T16:47:22.276Z,3.30
2022-09-14T16:49:48.886Z,3.37
2022-09-14T16:52:15.414Z,3.30
2022-09-14T16:54:42.121Z,3.23
2022-09-14T16:57:08.689Z,2.50
2022-09-14T16:59:35.266Z,2.50
2022-09-14T17:02:01.919Z,2.60
2022-09-14T17:04:28.622Z,2.90
2022-09-14T17:06:56.209Z,2.40
2022-09-14T17:09:26.068Z,3.20
2022-09-14T17:11:54.477Z,2.90
2022-09-14T17:14:27.211Z,3.30
2022-09-14T17:16:53.940Z,3.50
2022-09-14T17:19:20.877Z,3.77
2022-09-14T17:21:48.150Z,3.27
2022-09-14T17:24:16.630Z,3.00
2022-09-14T17:26:43.619Z,3.73
2022-09-14T17:29:11.014Z,3.30
2022-09-14T17:31:40.278Z,3.77
2022-09-14T17:34:08.703Z,3.47
2022-09-14T17:36:35.619Z,3.40
2022-09-14T17:39:06.796Z,3.37
2022-09-14T17:41:38.604Z,3.20
2022-09-14T17:44:06.694Z,3.17
2022-09-14T17:46:33.259Z,3.50
2022-09-14T17:49:00.929Z,3.60
2022-09-14T17:51:29.391Z,3.10
2022-09-14T17:53:57.740Z,3.73
2022-09-14T17:56:26.553Z,3.60
2022-09-14T17:59:00.628Z,3.60
2022-09-14T18:01:27.657Z,3.33
2022-09-14T18:03:58.002Z,3.33
2022-09-14T18:06:29.162Z,3.50
2022-09-14T18:08:59.165Z,3.50
2022-09-14T18:11:26.080Z,4.00
2022-09-14T18:13:53.110Z,3.60
2022-09-14T18:16:21.222Z,3.90
2022-09-14T18:18:48.462Z,3.80
2022-09-14T18:21:16.931Z,3.80
2022-09-14T18:23:43.979Z,4.47
2022-09-14T18:26:10.521Z,5.00
2022-09-14T18:28:37.095Z,5.33
2022-09-14T18:31:09.058Z,5.43
2022-09-14T18:33:36.738Z,6.07
2022-09-14T18:36:06.345Z,6.47
2022-09-14T18:38:33.340Z,6.43
2022-09-14T18:41:05.044Z,6.97
2022-09-14T18:43:31.731Z,6.20
2022-09-14T18:45:58.851Z,6.80
2022-09-14T18:48:25.457Z,6.97
2022-09-14T18:50:51.923Z,6.80
2022-09-14T18:53:18.582Z,7.00
2022-09-14T18:55:45.298Z,6.77
2022-09-14T18:58:11.818Z,7.37
2022-09-14T19:00:45.772Z,6.27
2022-09-14T19:03:12.720Z,6.70
2022-09-14T19:05:43.005Z,6.47
2022-09-14T19:08:10.219Z,7.70
2022-09-14T19:10:37.712Z,7.23
2022-09-14T19:13:05.070Z,7.80
2022-09-14T19:15:32.891Z,8.27
2022-09-14T19:18:00.267Z,8.53
2022-09-14T19:20:38.110Z,7.20
2022-09-14T19:23:10.028Z,7.73
2022-09-14T19:25:38.574Z,7.27
2022-09-14T19:28:05.696Z,7.80
2022-09-14T19:30:33.210Z,7.70
2022-09-14T19:33:00.064Z,7.23
2022-09-14T19:35:27.615Z,7.77
2022-09-14T19:37:55.051Z,7.70
2022-09-14T19:40:24.506Z,6.83
2022-09-14T19:42:54.339Z,8.07
2022-09-14T19:45:21.014Z,8.60
2022-09-14T19:47:47.719Z,7.97
2022-09-14T19:50:14.326Z,7.97
2022-09-14T19:52:40.929Z,7.87
2022-09-14T19:55:07.812Z,8.67
2022-09-14T19:57:37.432Z,8.40
2022-09-14T20:00:08.050Z,7.90
2022-09-14T20:02:34.791Z,8.63
2022-09-14T20:05:01.649Z,8.90
2022-09-14T20:07:28.569Z,9.40
2022-09-14T20:09:55.237Z,8.40
2022-09-14T20:12:21.806Z,9.07
2022-09-14T20:14:48.297Z,9.60
2022-09-14T20:17:14.809Z,9.17
2022-09-14T20:19:42.216Z,9.90
2022-09-14T20:22:08.741Z,9.80
2022-09-14T20:24:35.885Z,9.63
2022-09-14T20:27:02.498Z,9.83
2022-09-14T20:29:31.384Z,9.20
2022-09-14T20:31:58.829Z,8.90
2022-09-14T20:34:25.586Z,9.67
2022-09-14T20:36:53.078Z,9.47
2022-09-14T20:39:22.064Z,9.63
2022-09-14T20:41:48.845Z,9.60
2022-09-14T20:44:15.996Z,8.20
2022-09-14T20:46:44.573Z,9.40
2022-09-14T20:49:19.136Z,9.10
2022-09-14T20:51:45.876Z,8.50
2022-09-14T20:54:14.404Z,9.27
2022-09-14T20:56:41.929Z,9.07
2022-09-14T20:59:11.670Z,8.73
2022-09-14T21:01:40.367Z,8.90
2022-09-14T21:04:12.543Z,8.03
2022-09-14T21:06:41.953Z,7.97
2022-09-14T21:09:09.814Z,8.07
2022-09-14T21:11:38.070Z,8.10
2022-09-14T21:14:05.367Z,7.47
2022-09-14T21:16:38.373Z,8.13
2022-09-14T21:19:09.035Z,7.93
2022-09-14T21:21:36.005Z,7.77
2022-09-14T21:24:03.174Z,8.57
2022-09-14T21:26:34.058Z,8.47
2022-09-14T21:29:07.203Z,8.63
2022-09-14T21:31:36.371Z,9.10
2022-09-14T21:34:04.816Z,8.30
2022-09-14T21:36:40.120Z,9.93
2022-09-14T21:39:09.388Z,9.73
2022-09-14T21:41:39.400Z,8.87
2022-09-14T21:44:06.089Z,9.13
2022-09-14T21:46:32.989Z,8.87
2022-09-14T21:48:59.839Z,9.53
2022-09-14T21:51:33.380Z,9.27
2022-09-14T21:54:03.384Z,9.17
2022-09-14T21:56:31.523Z,8.90
2022-09-14T21:59:05.676Z,8.80
2022-09-14T22:01:32.471Z,9.43
2022-09-14T22:03:59.057Z,9.63
2022-09-14T22:06:29.856Z,9.37
2022-09-14T22:08:59.885Z,9.77
2022-09-14T22:11:34.844Z,9.17
2022-09-14T22:14:04.516Z,10.97
2022-09-14T22:16:35.461Z,10.10
2022-09-14T22:19:04.485Z,9.53
2022-09-14T22:21:35.065Z,11.30
2022-09-14T22:24:04.066Z,11.60
2022-09-14T22:26:32.117Z,11.77
2022-09-14T22:28:59.459Z,13.47
2022-09-14T22:31:27.988Z,14.47
2022-09-14T22:33:56.397Z,13.47
2022-09-14T22:36:23.917Z,14.67
2022-09-14T22:38:50.440Z,13.70
2022-09-14T22:41:20.729Z,13.80
2022-09-14T22:43:47.459Z,13.50
2022-09-14T22:46:15.181Z,14.77
2022-09-14T22:48:42.052Z,15.43
2022-09-14T22:51:11.035Z,13.97
2022-09-14T22:53:38.110Z,13.87
2022-09-14T22:56:18.473Z,14.80
2022-09-14T22:58:46.316Z,15.47
2022-09-14T23:01:18.975Z,14.83
2022-09-14T23:03:45.919Z,15.10
2022-09-14T23:06:12.598Z,14.57
2022-09-14T23:08:39.827Z,14.67
2022-09-14T23:11:10.949Z,14.03
2022-09-14T23:13:42.305Z,14.50
2022-09-14T23:16:16.431Z,14.33
2022-09-14T23:18:44.058Z,13.10
2022-09-14T23:21:11.021Z,13.57
2022-09-14T23:23:41.046Z,13.43
2022-09-14T23:26:11.048Z,13.63
2022-09-14T23:28:38.443Z,13.53
2022-09-14T23:31:05.849Z,13.67
2022-09-14T23:33:32.950Z,13.83
2022-09-14T23:35:59.566Z,13.43
2022-09-14T23:38:26.142Z,12.97
2022-09-14T23:40:52.931Z,12.73
2022-09-14T23:43:19.781Z,13.10
2022-09-14T23:45:47.868Z,13.57
2022-09-14T23:48:15.413Z,13.57
2022-09-14T23:50:42.076Z,13.43
2022-09-14T23:53:09.074Z,14.03
2022-09-14T23:55:36.058Z,13.93
2022-09-14T23:58:02.966Z,15.00
